Rechercher aéroport 
image banner adimage banner ad
image banner ad

FQNC - Nacala / International

Situé à Nacala, Mozambique

ICAO - FQNC, IATA - MNC

Données fournies par Airmate  

Information générale

Coordonnées: S14°29'26" E40°42'44"
Élévation : 398 feet MSL.
 
Voir autres Aéroports à Nampula Province

Données opérationnelles

Accessible au public
Heure actuelle UTC:
Heure actuelle locale:
Météo
TAF: TAF FQNC 280400Z 2806/2906 05012KT 9999 SCT020 TX31/2813Z TN22/2903Z PROB30 TEMPO 2810/2816 TS FEW025CB BECMG 2812/2814 06012KT
Voir NOTAMs / SUP AIP / TFR affectant cet aéroport [VIEW]
Fréquences de communication: [VIEW]

Pistes:

Identifiant RWYQFULongueur (ft)Largeur (ft)SurfaceLDA (ft)
0110171148
19185°10171148

Coordonnées de l'aéroport

Adresse: Nacala Mozambique

Vue satellite de FQNC